createdAt,value
2018-04-20T00:00:41.852Z,14.86
2018-04-20T00:01:41.869Z,14.94
2018-04-20T00:02:41.890Z,14.84
2018-04-20T00:03:41.909Z,14.88
2018-04-20T00:04:41.923Z,14.88
2018-04-20T00:05:41.955Z,14.88
2018-04-20T00:06:41.969Z,14.91
2018-04-20T00:07:41.978Z,14.96
2018-04-20T00:08:42.008Z,14.91
2018-04-20T00:09:42.020Z,14.82
2018-04-20T00:10:42.036Z,14.96
2018-04-20T00:11:42.070Z,14.91
2018-04-20T00:12:42.085Z,14.82
2018-04-20T00:13:42.094Z,14.72
2018-04-20T00:14:42.114Z,14.82
2018-04-20T00:15:42.133Z,14.79
2018-04-20T00:16:42.163Z,14.68
2018-04-20T00:17:42.172Z,14.41
2018-04-20T00:18:42.190Z,14.58
2018-04-20T00:19:42.209Z,14.58
2018-04-20T00:20:42.226Z,14.54
2018-04-20T00:21:42.250Z,14.65
2018-04-20T00:22:42.279Z,14.45
2018-04-20T00:23:42.311Z,14.50
2018-04-20T00:24:42.310Z,14.55
2018-04-20T00:25:42.327Z,14.58
2018-04-20T00:26:42.345Z,14.60
2018-04-20T00:27:42.370Z,14.51
2018-04-20T00:28:42.403Z,14.47
2018-04-20T00:29:42.398Z,14.63
2018-04-20T00:30:42.417Z,14.58
2018-04-20T00:31:42.438Z,14.48
2018-04-20T00:32:42.463Z,14.50
2018-04-20T00:33:42.478Z,14.59
2018-04-20T00:34:42.552Z,14.65
2018-04-20T00:35:42.523Z,14.54
2018-04-20T00:36:42.540Z,14.63
2018-04-20T00:37:42.553Z,14.62
2018-04-20T00:38:42.569Z,14.48
2018-04-20T00:39:42.599Z,14.63
2018-04-20T00:40:42.613Z,14.69
2018-04-20T00:41:42.646Z,14.72
2018-04-20T00:42:42.646Z,14.69
2018-04-20T00:43:42.661Z,14.70
2018-04-20T00:44:42.699Z,14.62
2018-04-20T00:45:42.712Z,14.50
2018-04-20T00:46:42.746Z,14.55
2018-04-20T00:47:42.741Z,14.50
2018-04-20T00:48:42.769Z,14.59
2018-04-20T00:49:42.787Z,14.55
2018-04-20T00:50:42.806Z,14.50
2018-04-20T00:51:42.821Z,14.43
2018-04-20T00:52:42.833Z,14.40
2018-04-20T00:53:42.862Z,14.33
2018-04-20T00:54:42.874Z,14.41
2018-04-20T00:55:42.892Z,14.33
2018-04-20T00:56:42.920Z,14.36
2018-04-20T00:57:42.937Z,14.41
2018-04-20T00:58:42.962Z,14.36
2018-04-20T00:59:42.966Z,14.30
2018-04-20T01:00:43.047Z,14.23
2018-04-20T01:01:43.072Z,14.30
2018-04-20T01:02:43.030Z,14.33
2018-04-20T01:03:43.053Z,14.32
2018-04-20T01:04:43.068Z,14.28
2018-04-20T01:05:43.091Z,14.33
2018-04-20T01:06:43.118Z,14.35
2018-04-20T01:07:43.118Z,14.29
2018-04-20T01:08:43.163Z,14.28
2018-04-20T01:09:43.160Z,14.29
2018-04-20T01:10:43.181Z,14.33
2018-04-20T01:11:43.193Z,14.30
2018-04-20T01:12:43.215Z,14.30
2018-04-20T01:13:43.235Z,14.23
2018-04-20T01:14:43.256Z,14.25
2018-04-20T01:15:43.287Z,14.25
2018-04-20T01:16:43.307Z,14.32
2018-04-20T01:17:43.314Z,14.29
2018-04-20T01:18:43.333Z,14.20
2018-04-20T01:19:43.351Z,14.23
2018-04-20T01:20:43.369Z,14.25
2018-04-20T01:21:43.381Z,14.22
2018-04-20T01:22:43.406Z,14.23
2018-04-20T01:23:43.425Z,14.25
2018-04-20T01:24:43.443Z,14.28
2018-04-20T01:25:43.460Z,14.22
2018-04-20T01:26:43.483Z,14.15
2018-04-20T01:27:43.507Z,14.17
2018-04-20T01:28:43.518Z,14.15
2018-04-20T01:29:43.538Z,14.14
2018-04-20T01:30:43.557Z,14.17
2018-04-20T01:31:43.602Z,14.17
2018-04-20T01:32:43.595Z,14.08
2018-04-20T01:33:43.627Z,14.15
2018-04-20T01:34:43.648Z,14.14
2018-04-20T01:35:43.656Z,14.20
2018-04-20T01:36:43.669Z,14.17
2018-04-20T01:37:43.702Z,13.92
2018-04-20T01:38:43.703Z,14.04
2018-04-20T01:39:43.723Z,14.03
2018-04-20T01:40:43.749Z,14.05
2018-04-20T01:41:43.776Z,14.10
2018-04-20T01:42:43.779Z,14.10
2018-04-20T01:43:43.805Z,13.97
2018-04-20T01:44:43.833Z,13.97
2018-04-20T01:45:43.842Z,14.03
2018-04-20T01:46:43.860Z,13.92
2018-04-20T01:47:43.873Z,13.95
2018-04-20T01:48:43.905Z,13.93
2018-04-20T01:49:43.904Z,13.93
2018-04-20T01:50:43.949Z,13.92
2018-04-20T01:51:43.950Z,13.99
2018-04-20T01:52:43.988Z,13.96
2018-04-20T01:53:43.986Z,13.89
2018-04-20T01:54:44.007Z,13.90
2018-04-20T01:55:44.030Z,13.89
2018-04-20T01:56:44.062Z,13.93
2018-04-20T01:57:44.059Z,13.93
2018-04-20T01:58:44.077Z,13.92
2018-04-20T01:59:44.138Z,13.86
2018-04-20T02:00:44.134Z,13.81
2018-04-20T02:01:44.134Z,13.79
2018-04-20T02:02:44.152Z,13.72
2018-04-20T02:03:44.180Z,13.72
2018-04-20T02:04:44.194Z,13.74
2018-04-20T02:05:44.223Z,13.67
2018-04-20T02:06:44.229Z,13.70
2018-04-20T02:07:44.250Z,13.65
2018-04-20T02:08:44.264Z,13.72
2018-04-20T02:09:44.283Z,13.59
2018-04-20T02:10:44.310Z,13.74
2018-04-20T02:11:44.327Z,13.67
2018-04-20T02:12:44.365Z,13.57
2018-04-20T02:13:44.366Z,13.62
2018-04-20T02:14:44.380Z,13.68
2018-04-20T02:15:44.407Z,13.59
2018-04-20T02:16:44.432Z,13.62
2018-04-20T02:17:44.440Z,13.62
2018-04-20T02:18:44.454Z,13.70
2018-04-20T02:19:44.482Z,13.63
2018-04-20T02:20:44.512Z,13.60
2018-04-20T02:21:44.510Z,13.62
2018-04-20T02:22:44.530Z,13.59
2018-04-20T02:23:44.551Z,13.56
2018-04-20T02:24:44.566Z,13.47
2018-04-20T02:25:44.582Z,13.49
2018-04-20T02:26:44.603Z,13.53
2018-04-20T02:27:44.620Z,13.50
2018-04-20T02:28:44.648Z,13.59
2018-04-20T02:29:44.660Z,13.57
2018-04-20T02:30:44.680Z,13.59
2018-04-20T02:31:44.695Z,13.52
2018-04-20T02:32:44.726Z,13.41
2018-04-20T02:33:44.748Z,13.30
2018-04-20T02:34:44.754Z,13.35
2018-04-20T02:35:44.779Z,13.39
2018-04-20T02:36:44.802Z,13.38
2018-04-20T02:37:44.823Z,13.37
2018-04-20T02:38:44.828Z,13.39
2018-04-20T02:39:44.846Z,13.33
2018-04-20T02:40:44.877Z,13.30
2018-04-20T02:41:44.879Z,13.37
2018-04-20T02:42:44.900Z,13.25
2018-04-20T02:43:44.925Z,13.30
2018-04-20T02:44:44.940Z,13.25
2018-04-20T02:45:44.957Z,13.38
2018-04-20T02:46:44.977Z,13.22
2018-04-20T02:47:44.997Z,13.23
2018-04-20T02:48:45.024Z,13.25
2018-04-20T02:49:45.043Z,13.18
2018-04-20T02:50:45.058Z,13.12
2018-04-20T02:51:45.071Z,13.16
2018-04-20T02:52:45.086Z,13.19
2018-04-20T02:53:45.106Z,13.16
2018-04-20T02:54:45.139Z,13.13
2018-04-20T02:55:45.158Z,13.15
2018-04-20T02:56:45.167Z,13.18
2018-04-20T02:57:45.180Z,13.15
2018-04-20T02:58:45.201Z,13.09
2018-04-20T02:59:45.220Z,13.08
2018-04-20T03:00:45.247Z,13.12
2018-04-20T03:01:45.254Z,13.12
2018-04-20T03:02:45.276Z,13.09
2018-04-20T03:03:45.300Z,13.16
2018-04-20T03:04:45.328Z,13.11
2018-04-20T03:05:45.334Z,13.04
2018-04-20T03:06:45.349Z,13.23
2018-04-20T03:07:45.365Z,13.13
2018-04-20T03:08:45.385Z,13.03
2018-04-20T03:09:45.414Z,13.03
2018-04-20T03:10:45.417Z,13.09
2018-04-20T03:11:45.446Z,13.05
2018-04-20T03:12:45.457Z,13.01
2018-04-20T03:13:45.480Z,13.01
2018-04-20T03:14:45.494Z,13.11
2018-04-20T03:15:45.536Z,13.04
2018-04-20T03:16:45.573Z,13.05
2018-04-20T03:17:45.549Z,12.97
2018-04-20T03:18:45.570Z,12.95
2018-04-20T03:19:45.582Z,13.01
2018-04-20T03:20:45.607Z,12.98
2018-04-20T03:21:45.621Z,12.95
2018-04-20T03:22:45.641Z,12.86
2018-04-20T03:23:45.662Z,12.94
2018-04-20T03:24:45.681Z,12.90
2018-04-20T03:25:45.699Z,12.90
2018-04-20T03:26:45.720Z,12.85
2018-04-20T03:27:45.731Z,12.90
2018-04-20T03:28:45.801Z,12.87
2018-04-20T03:29:45.776Z,12.87
2018-04-20T03:30:45.786Z,12.91
2018-04-20T03:31:45.803Z,12.83
2018-04-20T03:32:45.832Z,12.91
2018-04-20T03:33:45.843Z,12.87
2018-04-20T03:34:45.858Z,12.82
2018-04-20T03:35:45.877Z,12.65
2018-04-20T03:36:45.901Z,12.64
2018-04-20T03:37:45.920Z,12.64
2018-04-20T03:38:45.934Z,12.64
2018-04-20T03:39:45.955Z,12.64
2018-04-20T03:40:45.971Z,12.62
2018-04-20T03:41:45.987Z,12.70
2018-04-20T03:42:46.006Z,12.72
2018-04-20T03:43:46.031Z,12.67
2018-04-20T03:44:46.045Z,12.73
2018-04-20T03:45:46.063Z,12.67
2018-04-20T03:46:46.103Z,12.73
2018-04-20T03:47:46.097Z,12.72
2018-04-20T03:48:46.129Z,12.58
2018-04-20T03:49:46.144Z,12.79
2018-04-20T03:50:46.161Z,12.64
2018-04-20T03:51:46.196Z,12.68
2018-04-20T03:52:46.186Z,12.64
2018-04-20T03:53:46.205Z,12.61
2018-04-20T03:54:46.230Z,12.58
2018-04-20T03:55:46.249Z,12.61
2018-04-20T03:56:46.273Z,12.42
2018-04-20T03:57:46.289Z,12.55
2018-04-20T03:58:46.295Z,12.60
2018-04-20T03:59:46.314Z,12.62
2018-04-20T04:00:46.347Z,12.55
2018-04-20T04:01:46.351Z,12.57
2018-04-20T04:02:46.372Z,12.50
2018-04-20T04:03:46.402Z,12.49
2018-04-20T04:04:46.410Z,12.57
2018-04-20T04:05:46.423Z,12.45
2018-04-20T04:06:46.448Z,12.42
2018-04-20T04:07:46.463Z,12.46
2018-04-20T04:08:46.480Z,12.35
2018-04-20T04:09:46.496Z,12.36
2018-04-20T04:10:46.591Z,12.40
2018-04-20T04:11:46.534Z,12.43
2018-04-20T04:12:46.555Z,12.25
2018-04-20T04:13:46.574Z,12.37
2018-04-20T04:14:46.596Z,12.43
2018-04-20T04:15:46.614Z,12.43
2018-04-20T04:16:46.634Z,12.43
2018-04-20T04:17:46.647Z,12.42
2018-04-20T04:18:46.661Z,12.47
2018-04-20T04:19:46.680Z,12.35
2018-04-20T04:20:46.698Z,12.32
2018-04-20T04:21:46.724Z,12.31
2018-04-20T04:22:46.736Z,12.28
2018-04-20T04:23:46.754Z,12.31
2018-04-20T04:24:46.778Z,12.37
2018-04-20T04:25:46.785Z,12.32
2018-04-20T04:26:46.813Z,12.28
2018-04-20T04:27:46.840Z,12.35
2018-04-20T04:28:46.851Z,12.32
2018-04-20T04:29:46.863Z,12.27
2018-04-20T04:30:46.891Z,12.28
2018-04-20T04:31:46.891Z,12.22
2018-04-20T04:32:46.919Z,12.21
2018-04-20T04:33:46.941Z,12.35
2018-04-20T04:34:46.956Z,12.28
2018-04-20T04:35:46.975Z,12.10
2018-04-20T04:36:46.987Z,12.07
2018-04-20T04:37:47.009Z,12.18
2018-04-20T04:38:47.034Z,12.24
2018-04-20T04:39:47.042Z,12.27
2018-04-20T04:40:47.071Z,12.27
2018-04-20T04:41:47.088Z,12.27
2018-04-20T04:42:47.100Z,12.45
2018-04-20T04:43:47.114Z,12.54
2018-04-20T04:44:47.161Z,12.54
2018-04-20T04:45:47.155Z,12.55
2018-04-20T04:46:47.172Z,12.64
2018-04-20T04:47:47.187Z,12.61
2018-04-20T04:48:47.211Z,12.64
2018-04-20T04:49:47.249Z,12.67
2018-04-20T04:50:47.302Z,12.75
2018-04-20T04:51:47.289Z,12.79
2018-04-20T04:52:47.279Z,12.87
2018-04-20T04:53:47.298Z,12.90
2018-04-20T04:54:47.313Z,12.97
2018-04-20T04:55:47.335Z,12.97
2018-04-20T04:56:47.355Z,13.00
2018-04-20T04:57:47.372Z,12.95
2018-04-20T04:58:47.392Z,12.98
2018-04-20T04:59:47.410Z,13.01
2018-04-20T05:00:47.423Z,13.08
2018-04-20T05:01:47.442Z,13.23
2018-04-20T05:02:47.462Z,13.23
2018-04-20T05:03:47.488Z,13.65
2018-04-20T05:04:47.502Z,14.04
2018-04-20T05:05:47.533Z,14.28
2018-04-20T05:06:47.543Z,14.65
2018-04-20T05:07:47.556Z,14.96
2018-04-20T05:08:47.605Z,15.25
2018-04-20T05:09:47.594Z,15.62
2018-04-20T05:10:47.616Z,15.80
2018-04-20T05:11:47.643Z,16.20
2018-04-20T05:12:47.660Z,16.31
2018-04-20T05:13:47.680Z,16.32
2018-04-20T05:14:47.693Z,16.42
2018-04-20T05:15:47.711Z,16.69
2018-04-20T05:16:47.734Z,16.96
2018-04-20T05:17:47.752Z,17.12
2018-04-20T05:18:47.795Z,17.27
2018-04-20T05:19:47.805Z,17.36
2018-04-20T05:20:47.810Z,17.27
2018-04-20T05:21:47.847Z,17.09
2018-04-20T05:22:47.857Z,17.45
2018-04-20T05:23:47.879Z,17.74
2018-04-20T05:24:47.895Z,18.07
2018-04-20T05:25:47.930Z,18.53
2018-04-20T05:26:47.954Z,18.81
2018-04-20T05:27:47.967Z,19.12
2018-04-20T05:28:47.999Z,19.52
2018-04-20T05:29:48.011Z,19.19
2018-04-20T05:30:48.034Z,19.48
2018-04-20T05:31:48.050Z,19.69
2018-04-20T05:32:48.096Z,20.00
2018-04-20T05:33:48.094Z,20.34
2018-04-20T05:34:48.130Z,20.32
2018-04-20T05:35:48.146Z,20.70
2018-04-20T05:36:48.169Z,20.34
2018-04-20T05:37:48.189Z,20.88
2018-04-20T05:38:48.213Z,21.18
2018-04-20T05:39:48.230Z,21.42
2018-04-20T05:40:48.259Z,21.62
2018-04-20T05:41:48.283Z,20.93
2018-04-20T05:42:48.318Z,20.92
2018-04-20T05:43:48.332Z,21.06
2018-04-20T05:44:48.357Z,21.17
2018-04-20T05:45:48.376Z,21.29
2018-04-20T05:46:48.418Z,22.18
2018-04-20T05:47:48.424Z,22.45
2018-04-20T05:48:48.446Z,22.51
2018-04-20T05:49:48.476Z,23.13
2018-04-20T05:50:48.500Z,23.47
2018-04-20T05:51:48.528Z,23.98
2018-04-20T05:52:48.549Z,24.39
2018-04-20T05:53:48.570Z,24.66
2018-04-20T05:54:48.610Z,24.96
2018-04-20T05:55:48.622Z,25.29
2018-04-20T05:56:48.647Z,25.46
2018-04-20T05:57:48.670Z,25.83
2018-04-20T05:58:48.729Z,25.51
2018-04-20T05:59:48.721Z,24.88
2018-04-20T06:00:48.749Z,24.06
2018-04-20T06:01:48.784Z,23.76
2018-04-20T06:02:48.819Z,24.03
2018-04-20T06:03:48.861Z,24.10
2018-04-20T06:04:48.862Z,23.36
2018-04-20T06:05:48.900Z,23.20
2018-04-20T06:06:48.912Z,23.56
2018-04-20T06:07:48.936Z,23.88
2018-04-20T06:08:48.961Z,23.86
2018-04-20T06:09:48.989Z,23.58
2018-04-20T06:10:49.016Z,23.71
2018-04-20T06:11:49.044Z,23.73
2018-04-20T06:12:49.075Z,23.55
2018-04-20T06:13:49.091Z,24.10
2018-04-20T06:14:49.124Z,24.11
2018-04-20T06:15:49.152Z,24.63
2018-04-20T06:16:49.174Z,24.76
2018-04-20T06:17:49.232Z,25.25
2018-04-20T06:18:49.231Z,25.62
2018-04-20T06:19:49.251Z,26.06
2018-04-20T06:20:49.297Z,26.60
2018-04-20T06:21:49.308Z,26.93
2018-04-20T06:22:49.347Z,27.42
2018-04-20T06:23:49.367Z,28.05
2018-04-20T06:24:49.397Z,28.56
2018-04-20T06:25:49.425Z,28.86
2018-04-20T06:26:49.462Z,29.16
2018-04-20T06:27:49.475Z,29.47
2018-04-20T06:28:49.519Z,29.63
2018-04-20T06:29:49.537Z,29.50
2018-04-20T06:30:49.566Z,30.06
2018-04-20T06:31:49.591Z,29.91
2018-04-20T06:32:49.642Z,29.78
2018-04-20T06:33:49.656Z,30.44
2018-04-20T06:34:49.676Z,30.83
2018-04-20T06:35:49.707Z,31.00
2018-04-20T06:36:49.735Z,31.18
2018-04-20T06:37:49.765Z,31.27
2018-04-20T06:38:49.798Z,30.85
2018-04-20T06:39:49.828Z,31.25
2018-04-20T06:40:49.851Z,31.29
2018-04-20T06:41:49.878Z,31.12
2018-04-20T06:42:49.909Z,31.10
2018-04-20T06:43:49.938Z,31.09
2018-04-20T06:44:49.971Z,31.28
2018-04-20T06:45:49.997Z,30.99
2018-04-20T06:46:50.030Z,31.18
2018-04-20T06:47:50.055Z,30.83
2018-04-20T06:48:50.090Z,31.14
2018-04-20T06:49:50.115Z,30.24
2018-04-20T06:50:50.148Z,28.78
2018-04-20T06:51:50.182Z,28.37
2018-04-20T06:52:50.217Z,28.39
2018-04-20T06:53:50.230Z,27.89
2018-04-20T06:54:50.265Z,28.14
2018-04-20T06:55:50.288Z,28.05
2018-04-20T06:56:50.346Z,27.93
2018-04-20T06:57:50.344Z,28.11
2018-04-20T06:58:50.374Z,28.04
2018-04-20T06:59:50.405Z,28.25
2018-04-20T07:00:50.443Z,27.93
2018-04-20T07:01:50.463Z,28.10
2018-04-20T07:02:50.488Z,27.92
2018-04-20T07:03:50.517Z,27.00
2018-04-20T07:04:50.637Z,27.14
2018-04-20T07:05:50.578Z,27.14
2018-04-20T07:06:50.607Z,27.02
2018-04-20T07:07:50.627Z,27.52
2018-04-20T07:08:50.658Z,27.93
2018-04-20T07:09:50.687Z,28.05
2018-04-20T07:10:50.737Z,27.86
2018-04-20T07:11:50.749Z,28.22
2018-04-20T07:12:50.769Z,28.11
2018-04-20T07:13:50.842Z,28.35
2018-04-20T07:14:50.830Z,27.86
2018-04-20T07:15:50.856Z,28.29
2018-04-20T07:16:50.884Z,28.70
2018-04-20T07:17:50.905Z,28.82
2018-04-20T07:18:50.950Z,29.02
2018-04-20T07:19:50.970Z,28.79
2018-04-20T07:20:50.988Z,29.19
2018-04-20T07:21:51.024Z,28.64
2018-04-20T07:22:51.051Z,28.75
2018-04-20T07:23:51.081Z,28.89
2018-04-20T07:24:51.103Z,28.76
2018-04-20T07:25:51.140Z,28.69
2018-04-20T07:26:51.177Z,28.74
2018-04-20T07:27:51.193Z,28.98
2018-04-20T07:28:51.225Z,29.63
2018-04-20T07:29:51.269Z,29.65
2018-04-20T07:30:51.285Z,28.85
2018-04-20T07:31:51.312Z,29.04
2018-04-20T07:32:51.334Z,29.27
2018-04-20T07:33:51.362Z,29.53
2018-04-20T07:34:51.397Z,29.54
2018-04-20T07:35:51.421Z,30.23
2018-04-20T07:36:51.453Z,29.45
2018-04-20T07:37:51.475Z,29.38
2018-04-20T07:38:51.500Z,29.39
2018-04-20T07:39:51.544Z,30.24
2018-04-20T07:40:51.570Z,30.59
2018-04-20T07:41:51.592Z,30.23
2018-04-20T07:42:51.629Z,29.93
2018-04-20T07:43:51.646Z,29.07
2018-04-20T07:44:51.672Z,29.82
2018-04-20T07:45:51.718Z,31.14
2018-04-20T07:46:51.732Z,32.08
2018-04-20T07:47:51.763Z,31.92
2018-04-20T07:48:51.800Z,30.75
2018-04-20T07:49:51.828Z,31.06
2018-04-20T07:50:51.856Z,31.02
2018-04-20T07:51:51.893Z,30.19
2018-04-20T07:52:51.907Z,31.22
2018-04-20T07:53:51.938Z,29.88
2018-04-20T07:54:51.965Z,30.39
2018-04-20T07:55:51.991Z,31.62
2018-04-20T07:56:52.029Z,32.48
2018-04-20T07:57:52.065Z,32.93
2018-04-20T07:58:52.082Z,32.93
2018-04-20T07:59:52.107Z,31.73
2018-04-20T08:00:52.133Z,32.65
2018-04-20T08:01:52.164Z,33.14
2018-04-20T08:02:52.208Z,31.96
2018-04-20T08:03:52.226Z,31.44
2018-04-20T08:04:52.259Z,32.31
2018-04-20T08:05:52.283Z,33.59
2018-04-20T08:06:52.322Z,32.38
2018-04-20T08:07:52.339Z,32.67
2018-04-20T08:08:52.367Z,32.30
2018-04-20T08:09:52.399Z,33.46
2018-04-20T08:10:52.459Z,33.86
2018-04-20T08:11:52.465Z,32.56
2018-04-20T08:12:52.486Z,31.80
2018-04-20T08:13:52.565Z,30.80
2018-04-20T08:14:52.549Z,31.69
2018-04-20T08:15:52.576Z,32.34
2018-04-20T08:16:52.605Z,32.64
2018-04-20T08:17:52.633Z,32.46
2018-04-20T08:18:52.661Z,33.11
2018-04-20T08:19:52.693Z,32.75
2018-04-20T08:20:52.714Z,31.58
2018-04-20T08:21:52.751Z,31.18
2018-04-20T08:22:52.785Z,31.46
2018-04-20T08:23:52.806Z,30.99
2018-04-20T08:24:52.833Z,30.81
2018-04-20T08:25:52.859Z,30.30
2018-04-20T08:26:52.889Z,30.23
2018-04-20T08:27:52.920Z,29.68
2018-04-20T08:28:52.952Z,29.53
2018-04-20T08:29:52.975Z,29.56
2018-04-20T08:30:53.016Z,29.34
2018-04-20T08:31:53.031Z,29.31
2018-04-20T08:32:53.060Z,29.29
2018-04-20T08:33:53.091Z,28.45
2018-04-20T08:34:53.113Z,27.80
2018-04-20T08:35:53.143Z,28.11
2018-04-20T08:36:53.181Z,28.93
2018-04-20T08:37:53.218Z,29.23
2018-04-20T08:38:53.225Z,29.36
2018-04-20T08:39:53.241Z,29.60
2018-04-20T08:40:53.277Z,28.69
2018-04-20T08:41:53.302Z,28.25
2018-04-20T08:42:53.325Z,28.12
2018-04-20T08:43:53.358Z,28.67
2018-04-20T08:44:53.383Z,28.51
2018-04-20T08:45:53.409Z,27.82
2018-04-20T08:46:53.427Z,27.78
2018-04-20T08:47:53.451Z,28.30
2018-04-20T08:48:53.477Z,27.90
2018-04-20T08:49:53.508Z,27.21
2018-04-20T08:50:53.529Z,27.12
2018-04-20T08:51:53.556Z,27.21
2018-04-20T08:52:53.601Z,27.49
2018-04-20T08:53:53.606Z,27.74
2018-04-20T08:54:53.636Z,28.19
2018-04-20T08:55:53.667Z,28.25
2018-04-20T08:56:53.680Z,28.19
2018-04-20T08:57:53.709Z,27.87
2018-04-20T08:58:53.732Z,27.85
2018-04-20T08:59:53.761Z,28.10
2018-04-20T09:00:53.787Z,28.62
2018-04-20T09:01:53.812Z,28.51
2018-04-20T09:02:53.831Z,28.22
2018-04-20T09:03:53.859Z,28.11
2018-04-20T09:04:53.892Z,28.19
2018-04-20T09:05:53.913Z,27.83
2018-04-20T09:06:53.944Z,27.35
2018-04-20T09:07:53.963Z,27.22
2018-04-20T09:08:53.993Z,27.26
2018-04-20T09:09:54.021Z,27.58
2018-04-20T09:10:54.038Z,27.21
2018-04-20T09:11:54.062Z,26.99
2018-04-20T09:12:54.081Z,26.88
2018-04-20T09:13:54.119Z,26.96
2018-04-20T09:14:54.132Z,27.42
2018-04-20T09:15:54.160Z,27.78
2018-04-20T09:16:54.187Z,27.86
2018-04-20T09:17:54.212Z,27.52
2018-04-20T09:18:54.233Z,27.02
2018-04-20T09:19:54.282Z,27.17
2018-04-20T09:20:54.291Z,27.60
2018-04-20T09:21:54.317Z,27.48
2018-04-20T09:22:54.340Z,27.37
2018-04-20T09:23:54.367Z,27.12
2018-04-20T09:24:54.381Z,26.59
2018-04-20T09:25:54.416Z,26.85
2018-04-20T09:26:54.441Z,26.83
2018-04-20T09:27:54.458Z,26.65
2018-04-20T09:28:54.488Z,27.02
2018-04-20T09:29:54.520Z,27.21
2018-04-20T09:30:54.542Z,27.10
2018-04-20T09:31:54.556Z,26.73
2018-04-20T09:32:54.588Z,26.80
2018-04-20T09:33:54.607Z,27.33
2018-04-20T09:34:54.632Z,27.08
2018-04-20T09:35:54.654Z,27.17
2018-04-20T09:36:54.685Z,27.29
2018-04-20T09:37:54.701Z,27.11
2018-04-20T09:38:54.736Z,27.27
2018-04-20T09:39:54.755Z,27.51
2018-04-20T09:40:54.779Z,27.68
2018-04-20T09:41:54.806Z,28.25
2018-04-20T09:42:54.829Z,28.64
2018-04-20T09:43:54.857Z,28.74
2018-04-20T09:44:54.878Z,28.66
2018-04-20T09:45:54.904Z,28.70
2018-04-20T09:46:54.935Z,28.96
2018-04-20T09:47:54.952Z,28.94
2018-04-20T09:48:54.983Z,28.76
2018-04-20T09:49:55.012Z,28.70
2018-04-20T09:50:55.027Z,28.96
2018-04-20T09:51:55.057Z,29.29
2018-04-20T09:52:55.080Z,29.47
2018-04-20T09:53:55.109Z,29.65
2018-04-20T09:54:55.150Z,29.68
2018-04-20T09:55:55.155Z,29.59
2018-04-20T09:56:55.178Z,29.24
2018-04-20T09:57:55.209Z,29.04
2018-04-20T09:58:55.235Z,29.07
2018-04-20T09:59:55.261Z,29.10
2018-04-20T10:00:55.288Z,29.47
2018-04-20T10:01:55.306Z,29.60
2018-04-20T10:02:55.333Z,29.65
2018-04-20T10:03:55.355Z,29.73
2018-04-20T10:04:55.381Z,29.71
2018-04-20T10:05:55.411Z,29.94
2018-04-20T10:06:55.430Z,30.02
2018-04-20T10:07:55.457Z,29.56
2018-04-20T10:08:55.486Z,29.24
2018-04-20T10:09:55.509Z,29.23
2018-04-20T10:10:55.528Z,29.07
2018-04-20T10:11:55.561Z,29.27
2018-04-20T10:12:55.606Z,29.36
2018-04-20T10:13:55.619Z,29.26
2018-04-20T10:14:55.636Z,28.74
2018-04-20T10:15:55.655Z,28.76
2018-04-20T10:16:55.685Z,28.66
2018-04-20T10:17:55.714Z,28.79
2018-04-20T10:18:55.743Z,28.78
2018-04-20T10:19:55.760Z,28.39
2018-04-20T10:20:55.800Z,28.22
2018-04-20T10:21:55.813Z,28.27
2018-04-20T10:22:55.842Z,28.39
2018-04-20T10:23:55.868Z,28.51
2018-04-20T10:24:55.886Z,29.08
2018-04-20T10:25:55.918Z,28.78
2018-04-20T10:26:55.961Z,28.76
2018-04-20T10:27:55.970Z,29.26
2018-04-20T10:28:56.011Z,29.41
2018-04-20T10:29:56.018Z,29.59
2018-04-20T10:30:56.049Z,29.71
2018-04-20T10:31:56.073Z,29.79
2018-04-20T10:32:56.097Z,29.97
2018-04-20T10:33:56.115Z,30.00
2018-04-20T10:34:56.139Z,29.50
2018-04-20T10:35:56.162Z,29.65
2018-04-20T10:36:56.189Z,29.88
2018-04-20T10:37:56.215Z,30.10
2018-04-20T10:38:56.260Z,30.03
2018-04-20T10:39:56.266Z,29.75
2018-04-20T10:40:56.294Z,30.15
2018-04-20T10:41:56.315Z,29.78
2018-04-20T10:42:56.349Z,29.97
2018-04-20T10:43:56.368Z,30.16
2018-04-20T10:44:56.395Z,30.10
2018-04-20T10:45:56.418Z,29.68
2018-04-20T10:46:56.458Z,29.88
2018-04-20T10:47:56.469Z,30.18
2018-04-20T10:48:56.500Z,30.15
2018-04-20T10:49:56.532Z,29.76
2018-04-20T10:50:56.687Z,29.54
2018-04-20T10:51:56.567Z,29.75
2018-04-20T10:52:56.601Z,29.73
2018-04-20T10:53:56.619Z,30.02
2018-04-20T10:54:56.645Z,30.31
2018-04-20T10:55:56.670Z,30.47
2018-04-20T10:56:56.700Z,30.48
2018-04-20T10:57:56.721Z,30.47
2018-04-20T10:58:56.777Z,30.21
2018-04-20T10:59:56.777Z,29.82
2018-04-20T11:00:56.807Z,30.08
2018-04-20T11:01:56.825Z,30.25
2018-04-20T11:02:56.854Z,30.23
2018-04-20T11:03:56.874Z,30.35
2018-04-20T11:04:56.902Z,30.28
2018-04-20T11:05:56.931Z,30.47
2018-04-20T11:06:56.953Z,30.65
2018-04-20T11:07:56.980Z,30.46
2018-04-20T11:08:57.008Z,30.43
2018-04-20T11:09:57.036Z,30.44
2018-04-20T11:10:57.060Z,30.77
2018-04-20T11:11:57.085Z,30.54
2018-04-20T11:12:57.106Z,30.32
2018-04-20T11:13:57.132Z,30.37
2018-04-20T11:14:57.168Z,30.44
2018-04-20T11:15:57.192Z,30.50
2018-04-20T11:16:57.205Z,30.73
2018-04-20T11:17:57.235Z,30.51
2018-04-20T11:18:57.259Z,30.50
2018-04-20T11:19:57.287Z,30.54
2018-04-20T11:20:57.316Z,30.81
2018-04-20T11:21:57.335Z,30.85
2018-04-20T11:22:57.361Z,30.81
2018-04-20T11:23:57.394Z,30.77
2018-04-20T11:24:57.422Z,30.81
2018-04-20T11:25:57.439Z,31.03
2018-04-20T11:26:57.472Z,30.81
2018-04-20T11:27:57.494Z,30.70
2018-04-20T11:28:57.516Z,31.00
2018-04-20T11:29:57.545Z,31.10
2018-04-20T11:30:57.589Z,30.92
2018-04-20T11:31:57.624Z,31.14
2018-04-20T11:32:57.616Z,30.94
2018-04-20T11:33:57.655Z,31.14
2018-04-20T11:34:57.688Z,30.77
2018-04-20T11:35:57.700Z,30.53
2018-04-20T11:36:57.742Z,30.48
2018-04-20T11:37:57.749Z,30.15
2018-04-20T11:38:57.777Z,30.34
2018-04-20T11:39:57.801Z,30.62
2018-04-20T11:40:57.827Z,29.91
2018-04-20T11:41:57.867Z,29.94
2018-04-20T11:42:57.872Z,30.47
2018-04-20T11:43:57.901Z,30.85
2018-04-20T11:44:57.950Z,30.81
2018-04-20T11:45:57.959Z,31.09
2018-04-20T11:46:57.990Z,31.15
2018-04-20T11:47:58.005Z,31.15
2018-04-20T11:48:58.033Z,30.57
2018-04-20T11:49:58.069Z,30.69
2018-04-20T11:50:58.088Z,30.68
2018-04-20T11:51:58.116Z,30.54
2018-04-20T11:52:58.144Z,30.83
2018-04-20T11:53:58.193Z,30.94
2018-04-20T11:54:58.192Z,31.12
2018-04-20T11:55:58.214Z,31.20
2018-04-20T11:56:58.246Z,31.43
2018-04-20T11:57:58.273Z,31.51
2018-04-20T11:58:58.296Z,31.56
2018-04-20T11:59:58.324Z,31.47
2018-04-20T12:00:58.343Z,31.00
2018-04-20T12:01:58.371Z,30.91
2018-04-20T12:02:58.400Z,31.21
2018-04-20T12:03:58.428Z,31.28
2018-04-20T12:04:58.452Z,31.27
2018-04-20T12:05:58.485Z,31.58
2018-04-20T12:06:58.500Z,31.59
2018-04-20T12:07:58.532Z,31.65
2018-04-20T12:08:58.554Z,31.31
2018-04-20T12:09:58.604Z,30.68
2018-04-20T12:10:58.604Z,30.91
2018-04-20T12:11:58.633Z,31.17
2018-04-20T12:12:58.659Z,31.17
2018-04-20T12:13:58.703Z,31.28
2018-04-20T12:14:58.710Z,31.27
2018-04-20T12:15:58.749Z,31.21
2018-04-20T12:16:58.771Z,31.40
2018-04-20T12:17:58.808Z,31.49
2018-04-20T12:18:58.813Z,31.10
2018-04-20T12:19:58.836Z,30.97
2018-04-20T12:20:58.895Z,30.80
2018-04-20T12:21:58.889Z,30.44
2018-04-20T12:22:58.916Z,29.97
2018-04-20T12:23:58.963Z,29.93
2018-04-20T12:24:58.971Z,30.06
2018-04-20T12:25:58.997Z,30.30
2018-04-20T12:26:59.032Z,30.00
2018-04-20T12:27:59.057Z,30.09
2018-04-20T12:28:59.077Z,30.31
2018-04-20T12:29:59.097Z,30.39
2018-04-20T12:30:59.138Z,30.70
2018-04-20T12:31:59.159Z,30.97
2018-04-20T12:32:59.189Z,31.09
2018-04-20T12:33:59.209Z,31.03
2018-04-20T12:34:59.233Z,30.96
2018-04-20T12:35:59.252Z,30.78
2018-04-20T12:36:59.296Z,31.06
2018-04-20T12:37:59.306Z,31.18
2018-04-20T12:38:59.332Z,30.99
2018-04-20T12:39:59.361Z,30.78
2018-04-20T12:40:59.393Z,30.57
2018-04-20T12:41:59.428Z,30.84
2018-04-20T12:42:59.436Z,30.84
2018-04-20T12:43:59.459Z,31.18
2018-04-20T12:44:59.509Z,31.34
2018-04-20T12:45:59.528Z,31.27
2018-04-20T12:46:59.534Z,31.17
2018-04-20T12:47:59.569Z,31.29
2018-04-20T12:48:59.593Z,31.39
2018-04-20T12:49:59.613Z,31.36
2018-04-20T12:50:59.642Z,31.21
2018-04-20T12:51:59.667Z,31.05
2018-04-20T12:52:59.706Z,31.20